Time;durP1;ratioP1;P1;durP2;ratioP2;P2;SDS_P1;SDS_P2;PMS_P1;PMS_P2;Temp;Humidity;BMP_temperature;BMP_pressure;BME280_temperature;BME280_humidity;BME280_pressure;Samples;Min_cycle;Max_cycle;Signal;HPM_P1;HPM_P2
2022/12/16 00:01:24;;;;;;;5.43;4.80;;;;;;;18.49;35.71;100912.97;5046143;28;20104;-62
2022/12/16 00:03:55;;;;;;;4.43;3.92;;;;;;;18.47;35.63;100907.72;5044874;28;20029;-62
2022/12/16 00:06:21;;;;;;;5.47;4.88;;;;;;;18.45;35.78;100906.22;5046676;28;20025;-62
2022/12/16 00:08:46;;;;;;;5.18;4.60;;;;;;;18.45;35.40;100914.28;5045109;28;20482;-62
2022/12/16 00:11:11;;;;;;;4.75;3.97;;;;;;;18.46;35.62;100902.50;5046192;28;20026;-63
2022/12/16 00:13:39;;;;;;;5.50;4.78;;;;;;;18.46;35.76;100911.44;5045805;28;20029;-61
2022/12/16 00:16:15;;;;;;;4.97;4.35;;;;;;;18.46;35.66;100907.91;5045776;28;20025;-62
2022/12/16 00:18:41;;;;;;;6.05;4.63;;;;;;;18.46;35.69;100910.59;5061370;28;20022;-62
2022/12/16 00:21:06;;;;;;;4.20;3.80;;;;;;;18.45;35.54;100907.06;5046277;28;20053;-63
2022/12/16 00:23:33;;;;;;;5.47;4.75;;;;;;;18.45;35.64;100907.06;5045595;28;20029;-63
2022/12/16 00:25:58;;;;;;;7.63;5.13;;;;;;;18.37;35.51;100892.75;5045252;28;20033;-63
2022/12/16 00:28:24;;;;;;;5.45;4.15;;;;;;;18.45;35.69;100907.06;5044838;28;20025;-63
2022/12/16 00:30:51;;;;;;;5.70;4.38;;;;;;;18.44;35.53;100899.16;5044654;28;20017;-64
2022/12/16 00:33:17;;;;;;;4.93;4.00;;;;;;;18.41;35.64;100896.78;5044944;28;20104;-63
2022/12/16 00:35:44;;;;;;;5.00;4.32;;;;;;;18.36;35.39;100899.13;5045832;28;20021;-63
2022/12/16 00:38:09;;;;;;;5.43;4.30;;;;;;;18.41;35.68;100905.69;5045427;28;20040;-63
2022/12/16 00:40:35;;;;;;;4.93;4.43;;;;;;;18.42;35.55;100914.63;5044996;28;20025;-64
2022/12/16 00:43:00;;;;;;;5.60;4.53;;;;;;;18.41;35.54;100912.94;5045689;28;20501;-63
2022/12/16 00:45:26;;;;;;;6.93;5.00;;;;;;;18.41;35.77;100919.16;5043492;28;20029;-64
2022/12/16 00:47:51;;;;;;;6.15;5.00;;;;;;;18.42;35.81;100922.69;5045496;28;20045;-63
2022/12/16 00:50:17;;;;;;;5.47;4.57;;;;;;;18.41;35.80;100919.16;5042392;28;20025;-63
2022/12/16 00:52:43;;;;;;;5.70;4.65;;;;;;;18.33;35.66;100902.16;5031161;28;20033;-63
2022/12/16 00:55:08;;;;;;;5.20;4.70;;;;;;;18.39;35.49;100923.88;5044202;28;20466;-63
2022/12/16 00:57:34;;;;;;;6.07;4.55;;;;;;;18.39;35.53;100921.19;5045735;28;20095;-63
2022/12/16 00:59:59;;;;;;;6.50;4.47;;;;;;;18.40;35.66;100925.56;5045006;28;20033;-63
2022/12/16 01:02:25;;;;;;;6.72;4.63;;;;;;;18.41;35.65;100923.72;5045197;28;20075;-63
2022/12/16 01:04:50;;;;;;;5.78;4.72;;;;;;;18.40;35.53;100930.94;5044608;28;20029;-63
2022/12/16 01:07:15;;;;;;;5.28;4.78;;;;;;;18.41;35.35;100935.31;5045278;28;20024;-63
2022/12/16 01:09:41;;;;;;;6.65;4.88;;;;;;;18.40;35.61;100927.41;5044494;28;20029;-63
2022/12/16 01:12:06;;;;;;;5.43;4.30;;;;;;;18.41;35.41;100931.78;5045195;28;20021;-63
2022/12/16 01:14:32;;;;;;;5.13;4.10;;;;;;;18.41;35.74;100931.78;5044822;28;20017;-64
2022/12/16 01:16:57;;;;;;;6.95;4.57;;;;;;;18.37;35.57;100927.75;5044558;28;20433;-63
2022/12/16 01:19:22;;;;;;;5.95;4.72;;;;;;;18.36;35.58;100934.13;5044581;28;20021;-63
2022/12/16 01:21:48;;;;;;;4.55;3.92;;;;;;;18.39;35.61;100940.03;5045287;28;20049;-62
2022/12/16 01:24:13;;;;;;;5.57;4.60;;;;;;;18.37;35.64;100942.03;5043769;28;20459;-63
2022/12/16 01:26:38;;;;;;;4.80;4.28;;;;;;;18.34;35.62;100936.97;5044745;28;20040;-63
2022/12/16 01:29:04;;;;;;;5.40;4.53;;;;;;;18.37;35.40;100958.19;5044763;28;20049;-63
2022/12/16 01:31:30;;;;;;;6.15;5.00;;;;;;;18.37;35.54;100960.03;5043543;28;20037;-63
2022/12/16 01:33:55;;;;;;;5.20;4.22;;;;;;;18.37;35.53;100960.88;5044376;28;20040;-63
2022/12/16 01:36:20;;;;;;;5.60;4.25;;;;;;;18.37;35.67;100976.19;5044674;28;20061;-63
2022/12/16 01:38:46;;;;;;;5.20;4.45;;;;;;;18.37;35.43;100978.88;5044384;28;20021;-63
2022/12/16 01:41:12;;;;;;;5.43;4.53;;;;;;;18.36;35.41;100983.44;5044116;28;20489;-63
2022/12/16 01:43:39;;;;;;;6.57;4.72;;;;;;;18.35;35.62;100984.44;5044229;28;20482;-63
2022/12/16 01:46:11;;;;;;;5.57;4.60;;;;;;;18.37;35.38;100992.34;5043118;28;20083;-62
2022/12/16 01:48:47;;;;;;;5.93;4.75;;;;;;;18.37;35.42;100990.50;5042964;28;20045;-63
2022/12/16 01:51:33;;;;;;;4.97;4.30;;;;;;;18.37;35.37;100997.72;5043505;28;20025;-63
2022/12/16 01:54:04;;;;;;;7.68;5.18;;;;;;;18.37;35.36;101003.94;5043988;28;20030;-63
2022/12/16 01:56:31;;;;;;;5.35;4.70;;;;;;;18.37;35.51;100997.72;5044458;28;20025;-63
2022/12/16 01:58:56;;;;;;;6.90;5.05;;;;;;;18.36;35.50;101007.66;5044270;28;20027;-64
2022/12/16 02:01:22;;;;;;;6.88;4.60;;;;;;;18.36;35.42;100996.88;5043223;28;20025;-65
2022/12/16 02:03:48;;;;;;;6.28;4.80;;;;;;;18.36;35.37;101004.13;5044012;28;20093;-65
2022/12/16 02:06:13;;;;;;;5.25;4.53;;;;;;;18.35;35.15;101010.50;5043349;28;20021;-64
2022/12/16 02:08:38;;;;;;;5.22;4.40;;;;;;;18.35;35.28;101003.28;5044334;28;20033;-65
2022/12/16 02:11:12;;;;;;;6.05;4.43;;;;;;;18.36;35.35;101001.44;5043973;28;20067;-65
2022/12/16 02:14:29;;;;;;;5.65;4.70;;;;;;;18.36;35.47;100998.75;5043876;28;20026;-65
2022/12/16 02:17:03;;;;;;;5.20;4.28;;;;;;;18.36;35.41;100996.88;5002080;28;20046;-64
2022/12/16 02:19:34;;;;;;;5.57;4.50;;;;;;;18.36;35.38;100999.56;5001980;28;20042;-64
2022/12/16 02:22:28;;;;;;;5.18;4.28;;;;;;;18.35;35.54;101003.28;5002223;28;20042;-64
2022/12/16 02:25:33;;;;;;;5.20;4.43;;;;;;;18.35;35.51;101005.09;4985452;28;20042;-64
2022/12/16 02:28:10;;;;;;;5.28;4.28;;;;;;;18.29;35.34;100998.53;5002221;28;20109;-63
2022/12/16 02:30:55;;;;;;;5.07;4.38;;;;;;;18.32;35.38;101006.28;4985669;28;20546;-63
2022/12/16 02:33:32;;;;;;;5.95;4.50;;;;;;;18.32;35.33;101011.66;4985336;28;20030;-63
2022/12/16 02:36:10;;;;;;;5.38;4.22;;;;;;;18.31;35.52;101012.69;5002178;28;20031;-63
2022/12/16 02:38:47;;;;;;;6.37;4.87;;;;;;;18.30;35.53;101010.97;5001882;28;20045;-64
2022/12/16 02:41:33;;;;;;;4.93;4.43;;;;;;;18.29;35.37;101006.59;4985585;28;20062;-64
2022/12/16 02:44:05;;;;;;;5.78;5.03;;;;;;;18.31;35.50;101006.44;4985558;28;20034;-64
2022/12/16 02:46:32;;;;;;;5.70;4.45;;;;;;;18.30;35.51;101013.66;4985246;28;20039;-63
2022/12/16 02:49:13;;;;;;;4.88;4.38;;;;;;;18.31;35.40;101020.75;5001615;28;20055;-63
2022/12/16 02:51:38;;;;;;;5.43;4.20;;;;;;;18.31;35.49;101023.44;5005049;28;20044;-63
2022/12/16 02:54:07;;;;;;;6.40;4.70;;;;;;;18.30;35.28;101024.44;5041561;28;20033;-63
2022/12/16 02:56:49;;;;;;;4.47;4.07;;;;;;;18.30;35.46;101029.81;5043723;28;20032;-64
2022/12/16 02:59:20;;;;;;;6.97;5.00;;;;;;;18.31;35.40;101027.97;5046568;28;20077;-63
2022/12/16 03:01:52;;;;;;;5.45;4.50;;;;;;;18.30;35.19;101027.13;5046672;28;20056;-64
2022/12/16 03:04:24;;;;;;;5.53;4.60;;;;;;;18.28;35.48;101025.63;5046300;28;20390;-63
2022/12/16 03:06:51;;;;;;;5.70;4.88;;;;;;;18.30;35.34;101027.13;5047563;28;20028;-63
2022/12/16 03:09:21;;;;;;;6.03;4.55;;;;;;;18.30;35.22;101029.81;5046970;28;20024;-63
2022/12/16 03:11:47;;;;;;;5.95;4.75;;;;;;;18.28;35.37;101028.31;5047322;28;20025;-63
2022/12/16 03:14:15;;;;;;;5.13;4.00;;;;;;;18.27;35.57;101026.63;5047088;28;20025;-63
2022/12/16 03:16:41;;;;;;;4.85;3.90;;;;;;;18.30;35.17;101037.06;5046863;28;20441;-63
2022/12/16 03:19:08;;;;;;;5.65;4.63;;;;;;;18.29;35.12;101033.53;5045443;28;20034;-63
2022/12/16 03:21:38;;;;;;;5.03;4.53;;;;;;;18.29;35.17;101044.28;5046350;28;20025;-64
2022/12/16 03:24:12;;;;;;;5.53;4.72;;;;;;;18.30;35.18;101048.66;5045737;28;20021;-63
2022/12/16 03:26:55;;;;;;;5.03;4.15;;;;;;;18.30;35.24;101053.19;5046012;28;20025;-62
2022/12/16 03:29:23;;;;;;;4.85;4.25;;;;;;;18.30;35.43;101051.34;5045420;28;20025;-63
2022/12/16 03:31:54;;;;;;;7.07;5.13;;;;;;;18.28;35.21;101053.38;5047088;28;20510;-62
2022/12/16 03:34:54;;;;;;;4.97;4.10;;;;;;;18.28;35.25;101069.53;5045390;28;20041;-63
2022/12/16 03:37:21;;;;;;;5.35;4.10;;;;;;;18.28;35.41;101074.91;5045531;28;20029;-64
2022/12/16 03:39:49;;;;;;;6.28;4.30;;;;;;;18.27;35.30;101075.91;5044812;28;20025;-63
2022/12/16 03:42:15;;;;;;;5.10;4.00;;;;;;;18.28;35.15;101071.38;5045757;28;20104;-63
2022/12/16 03:44:42;;;;;;;5.57;4.15;;;;;;;18.27;35.17;101078.59;5046452;28;20044;-63
2022/12/16 03:47:07;;;;;;;5.53;4.05;;;;;;;18.27;35.32;101077.78;5045807;28;20045;-64
2022/12/16 03:49:33;;;;;;;6.70;4.85;;;;;;;18.28;35.17;101079.44;5046602;28;20061;-64
2022/12/16 03:51:58;;;;;;;5.90;4.53;;;;;;;18.28;35.16;101082.13;5045475;28;20558;-64
2022/12/16 03:54:24;;;;;;;5.00;4.10;;;;;;;18.27;35.23;101080.47;5046006;28;20029;-64
2022/12/16 03:56:50;;;;;;;6.30;4.60;;;;;;;18.28;35.24;101088.38;5061823;28;20029;-63
2022/12/16 03:59:15;;;;;;;5.63;4.95;;;;;;;18.27;35.13;101088.53;5046487;28;20033;-63
2022/12/16 04:01:40;;;;;;;4.43;3.88;;;;;;;18.28;35.13;101088.38;5046669;28;20083;-63
2022/12/16 04:04:06;;;;;;;5.97;4.28;;;;;;;18.28;35.16;101092.91;5045843;28;20074;-63
2022/12/16 04:06:31;;;;;;;6.25;4.50;;;;;;;18.26;35.22;101086.81;5046376;28;20025;-62
2022/12/16 04:08:56;;;;;;;5.20;4.55;;;;;;;18.25;35.18;101091.38;5045039;28;20029;-63
2022/12/16 04:25:23;;;;;;;6.50;4.32;;;;;;;18.26;35.16;101095.75;5058196;28;20032;-62
2022/12/16 04:27:48;;;;;;;6.53;4.95;;;;;;;18.21;35.22;101095.38;5044870;28;20021;-64
2022/12/16 04:30:18;;;;;;;6.18;4.60;;;;;;;18.24;35.33;101100.44;5046073;28;20029;-63
